createdAt,value
2022-09-13T00:01:58.922Z,3.78
2022-09-13T00:04:25.635Z,4.07
2022-09-13T00:06:52.193Z,3.97
2022-09-13T00:09:18.697Z,4.32
2022-09-13T00:11:45.234Z,3.92
2022-09-13T00:14:13.108Z,3.75
2022-09-13T00:16:39.658Z,4.40
2022-09-13T00:19:06.218Z,4.00
2022-09-13T00:21:32.816Z,3.75
2022-09-13T00:23:59.334Z,3.60
2022-09-13T00:26:27.840Z,4.00
2022-09-13T00:28:56.497Z,4.28
2022-09-13T00:31:26.105Z,4.15
2022-09-13T00:33:53.001Z,3.80
2022-09-13T00:36:19.912Z,3.65
2022-09-13T00:38:46.562Z,4.15
2022-09-13T00:41:15.065Z,4.13
2022-09-13T00:43:45.400Z,4.18
2022-09-13T00:46:16.271Z,5.30
2022-09-13T00:48:46.008Z,5.20
2022-09-13T00:51:13.604Z,5.07
2022-09-13T00:53:44.278Z,6.18
2022-09-13T00:56:15.113Z,4.85
2022-09-13T00:58:45.246Z,5.97
2022-09-13T01:01:14.447Z,5.25
2022-09-13T01:03:42.810Z,5.85
2022-09-13T01:06:14.651Z,6.47
2022-09-13T01:08:45.458Z,5.25
2022-09-13T01:11:20.699Z,5.32
2022-09-13T01:13:47.928Z,6.13
2022-09-13T01:16:14.545Z,5.50
2022-09-13T01:18:41.099Z,5.63
2022-09-13T01:21:42.874Z,5.60
2022-09-13T01:24:23.451Z,5.40
2022-09-13T01:27:23.728Z,5.32
2022-09-13T01:30:10.947Z,4.85
2022-09-13T01:32:51.023Z,4.53
2022-09-13T01:35:28.889Z,4.32
2022-09-13T01:38:02.512Z,5.05
2022-09-13T01:40:43.824Z,4.47
2022-09-13T01:43:22.625Z,4.60
2022-09-13T01:45:56.042Z,4.38
2022-09-13T01:48:30.070Z,3.92
2022-09-13T01:51:04.147Z,4.50
2022-09-13T01:53:35.915Z,4.80
2022-09-13T01:56:10.611Z,5.55
2022-09-13T01:58:41.827Z,5.50
2022-09-13T02:01:15.119Z,5.47
2022-09-13T02:03:47.921Z,4.47
2022-09-13T02:06:20.286Z,4.78
2022-09-13T02:08:51.068Z,5.38
2022-09-13T02:11:18.918Z,5.20
2022-09-13T02:13:49.325Z,5.18
2022-09-13T02:16:26.421Z,5.50
2022-09-13T02:18:57.079Z,4.97
2022-09-13T02:21:28.674Z,4.43
2022-09-13T02:24:00.650Z,4.50
2022-09-13T02:26:29.135Z,4.63
2022-09-13T02:29:00.158Z,4.97
2022-09-13T02:31:33.693Z,4.43
2022-09-13T02:34:04.640Z,4.38
2022-09-13T02:36:35.530Z,4.03
2022-09-13T02:39:04.709Z,4.20
2022-09-13T02:41:37.336Z,4.38
2022-09-13T02:44:11.112Z,4.10
2022-09-13T02:47:09.466Z,4.80
2022-09-13T02:49:47.791Z,5.25
2022-09-13T02:52:23.517Z,5.18
2022-09-13T02:54:57.328Z,4.80
2022-09-13T02:57:29.799Z,4.72
2022-09-13T02:59:56.341Z,5.57
2022-09-13T03:02:33.017Z,5.30
2022-09-13T03:05:00.985Z,4.82
2022-09-13T03:07:28.307Z,4.93
2022-09-13T03:10:00.558Z,4.72
2022-09-13T03:12:43.947Z,4.43
2022-09-13T03:15:19.653Z,4.55
2022-09-13T03:18:00.301Z,4.13
2022-09-13T03:20:40.885Z,3.95
2022-09-13T03:23:21.997Z,4.70
2022-09-13T03:26:08.072Z,4.03
2022-09-13T03:28:43.374Z,4.10
2022-09-13T03:31:21.100Z,4.05
2022-09-13T03:33:56.589Z,3.75
2022-09-13T03:36:33.087Z,3.97
2022-09-13T03:39:11.907Z,4.13
2022-09-13T03:41:46.554Z,4.30
2022-09-13T03:44:16.734Z,4.32
2022-09-13T03:46:46.242Z,3.92
2022-09-13T03:49:15.936Z,4.40
2022-09-13T03:51:45.108Z,3.95
2022-09-13T03:54:19.132Z,3.72
2022-09-13T03:57:07.816Z,3.90
2022-09-13T03:59:34.590Z,3.90
2022-09-13T04:02:01.103Z,4.07
2022-09-13T04:04:28.986Z,4.32
2022-09-13T04:06:55.494Z,4.47
2022-09-13T04:09:22.023Z,4.97
2022-09-13T04:11:48.668Z,4.93
2022-09-13T04:14:15.188Z,5.80
2022-09-13T04:16:42.226Z,5.97
2022-09-13T04:19:08.789Z,5.68
2022-09-13T04:21:36.637Z,5.20
2022-09-13T04:24:03.345Z,5.30
2022-09-13T04:26:29.839Z,4.25
2022-09-13T04:28:56.359Z,5.28
2022-09-13T04:31:22.932Z,3.97
2022-09-13T04:33:49.600Z,4.68
2022-09-13T04:36:16.092Z,3.80
2022-09-13T04:38:46.369Z,3.70
2022-09-13T04:41:12.867Z,3.75
2022-09-13T04:43:39.403Z,4.22
2022-09-13T04:46:05.916Z,3.97
2022-09-13T04:48:32.469Z,3.30
2022-09-13T04:51:02.004Z,3.50
2022-09-13T04:53:28.503Z,3.70
2022-09-13T04:56:00.437Z,3.15
2022-09-13T05:00:53.348Z,3.55
2022-09-13T05:03:19.905Z,3.53
2022-09-13T05:05:46.391Z,3.45
2022-09-13T05:08:12.905Z,3.92
2022-09-13T05:10:39.409Z,3.97
2022-09-13T05:13:07.262Z,4.65
2022-09-13T05:15:33.761Z,4.63
2022-09-13T05:18:00.274Z,3.90
2022-09-13T05:20:26.742Z,4.22
2022-09-13T05:22:53.235Z,4.60
2022-09-13T05:25:22.956Z,3.95
2022-09-13T05:27:51.941Z,4.80
2022-09-13T05:30:19.795Z,4.47
2022-09-13T05:32:46.295Z,4.15
2022-09-13T05:35:12.849Z,3.95
2022-09-13T05:37:39.412Z,7.05
2022-09-13T05:40:11.773Z,4.35
2022-09-13T05:42:38.909Z,4.28
2022-09-13T05:45:06.704Z,4.28
2022-09-13T05:47:34.505Z,4.22
2022-09-13T05:50:39.518Z,4.68
2022-09-13T05:52:52.035Z,4.88
2022-09-13T05:55:18.528Z,4.57
2022-09-13T05:57:45.006Z,4.43
2022-09-13T06:00:12.460Z,4.65
2022-09-13T06:02:40.985Z,5.78
2022-09-13T06:05:08.400Z,5.97
2022-09-13T06:07:34.856Z,5.80
2022-09-13T06:10:01.343Z,6.43
2022-09-13T06:12:27.863Z,6.00
2022-09-13T06:14:54.329Z,5.53
2022-09-13T06:17:20.826Z,7.13
2022-09-13T06:19:48.649Z,6.55
2022-09-13T06:22:15.112Z,6.30
2022-09-13T06:24:41.595Z,6.47
2022-09-13T06:27:08.107Z,7.05
2022-09-13T06:29:34.602Z,6.68
2022-09-13T06:32:01.108Z,6.13
2022-09-13T06:34:31.155Z,5.68
2022-09-13T06:36:59.331Z,5.68
2022-09-13T06:39:25.819Z,6.20
2022-09-13T06:41:52.299Z,5.50
2022-09-13T06:44:18.797Z,6.63
2022-09-13T06:46:45.313Z,7.25
2022-09-13T06:49:11.822Z,7.93
2022-09-13T06:51:38.285Z,7.15
2022-09-13T06:54:06.155Z,7.15
2022-09-13T06:56:34.251Z,7.00
2022-09-13T06:59:02.820Z,7.43
2022-09-13T07:01:31.009Z,7.10
2022-09-13T07:04:01.003Z,7.95
2022-09-13T07:06:29.935Z,8.60
2022-09-13T07:08:58.016Z,7.50
2022-09-13T07:11:29.102Z,7.85
2022-09-13T07:13:57.363Z,7.63
2022-09-13T07:16:25.976Z,6.70
2022-09-13T07:18:53.183Z,7.75
2022-09-13T07:21:20.054Z,7.32
2022-09-13T07:23:46.599Z,7.40
2022-09-13T07:26:13.354Z,7.15
2022-09-13T07:28:43.291Z,6.47
2022-09-13T07:31:12.358Z,7.13
2022-09-13T07:33:40.058Z,6.97
2022-09-13T07:36:07.981Z,6.10
2022-09-13T07:38:35.815Z,5.88
2022-09-13T07:41:03.373Z,6.13
2022-09-13T07:43:29.882Z,5.75
2022-09-13T07:45:59.197Z,5.80
2022-09-13T07:48:30.469Z,6.07
2022-09-13T07:51:01.492Z,5.97
2022-09-13T07:53:28.413Z,5.68
2022-09-13T07:55:59.498Z,5.43
2022-09-13T07:58:26.002Z,5.53
2022-09-13T08:00:52.528Z,5.88
2022-09-13T08:03:20.382Z,5.72
2022-09-13T08:05:46.922Z,5.55
2022-09-13T08:08:13.424Z,5.78
2022-09-13T08:10:40.023Z,6.07
2022-09-13T08:13:06.570Z,5.72
2022-09-13T08:15:33.579Z,5.57
2022-09-13T08:18:00.152Z,6.13
2022-09-13T08:20:28.188Z,5.68
2022-09-13T08:22:55.119Z,5.15
2022-09-13T08:25:21.693Z,4.80
2022-09-13T08:27:48.183Z,4.93
2022-09-13T08:30:14.909Z,5.00
2022-09-13T08:32:41.413Z,4.45
2022-09-13T08:35:08.456Z,5.05
2022-09-13T08:37:36.336Z,6.03
2022-09-13T08:40:03.444Z,5.20
2022-09-13T08:42:50.765Z,5.35
2022-09-13T08:45:17.596Z,4.90
2022-09-13T08:47:50.414Z,5.72
2022-09-13T08:50:21.390Z,5.78
2022-09-13T08:52:58.544Z,5.00
2022-09-13T08:55:36.171Z,4.90
2022-09-13T08:58:12.445Z,4.85
2022-09-13T09:00:40.964Z,4.75
2022-09-13T09:03:19.527Z,4.93
2022-09-13T09:05:48.232Z,5.50
2022-09-13T09:08:29.834Z,4.53
2022-09-13T09:10:59.031Z,4.25
2022-09-13T09:13:29.566Z,4.28
2022-09-13T09:16:00.704Z,4.90
2022-09-13T09:18:30.922Z,4.75
2022-09-13T09:20:59.437Z,5.20
2022-09-13T09:23:31.878Z,4.53
2022-09-13T09:26:14.568Z,4.82
2022-09-13T09:28:41.135Z,5.10
2022-09-13T09:31:12.891Z,4.85
2022-09-13T09:33:55.747Z,4.28
2022-09-13T09:36:31.263Z,4.82
2022-09-13T09:38:59.163Z,4.43
2022-09-13T09:41:30.127Z,4.25
2022-09-13T09:44:06.103Z,4.90
2022-09-13T09:46:37.326Z,4.03
2022-09-13T09:49:13.916Z,3.58
2022-09-13T09:51:40.481Z,4.28
2022-09-13T09:54:11.499Z,3.75
2022-09-13T09:56:53.321Z,4.15
2022-09-13T09:59:26.835Z,3.53
2022-09-13T10:01:53.462Z,4.15
2022-09-13T10:04:22.573Z,3.38
2022-09-13T10:06:49.698Z,4.43
2022-09-13T10:09:19.845Z,4.07
2022-09-13T10:11:49.924Z,4.68
2022-09-13T10:14:37.911Z,4.10
2022-09-13T10:17:13.536Z,3.78
2022-09-13T10:19:40.063Z,3.78
2022-09-13T10:22:11.284Z,3.67
2022-09-13T10:24:39.572Z,3.65
2022-09-13T10:27:20.358Z,4.00
2022-09-13T10:29:49.010Z,4.28
2022-09-13T10:32:15.830Z,3.65
2022-09-13T10:34:45.126Z,3.42
2022-09-13T10:37:16.003Z,3.83
2022-09-13T10:39:55.653Z,4.07
2022-09-13T10:42:25.158Z,3.65
2022-09-13T10:44:55.313Z,4.40
2022-09-13T10:47:25.524Z,3.80
2022-09-13T10:49:54.721Z,4.60
2022-09-13T10:52:30.342Z,4.35
2022-09-13T10:55:23.428Z,5.30
2022-09-13T10:57:51.699Z,4.43
2022-09-13T11:00:20.343Z,4.78
2022-09-13T11:03:05.993Z,5.15
2022-09-13T11:05:39.595Z,5.13
2022-09-13T11:08:18.822Z,5.50
2022-09-13T11:10:58.545Z,4.95
2022-09-13T11:13:34.631Z,4.10
2022-09-13T11:16:15.719Z,4.15
2022-09-13T11:18:59.280Z,8.60
2022-09-13T11:21:40.126Z,4.75
2022-09-13T11:24:24.167Z,4.75
2022-09-13T11:27:00.181Z,4.65
2022-09-13T11:29:40.122Z,4.00
2022-09-13T11:32:20.966Z,3.80
2022-09-13T11:35:02.527Z,4.60
2022-09-13T11:37:42.214Z,4.55
2022-09-13T11:40:28.375Z,4.60
2022-09-13T11:43:08.770Z,4.40
2022-09-13T11:45:42.530Z,4.40
2022-09-13T11:48:30.446Z,4.57
2022-09-13T11:51:06.435Z,3.88
2022-09-13T11:53:57.470Z,4.40
2022-09-13T11:56:29.246Z,3.88
2022-09-13T12:01:33.903Z,4.03
2022-09-13T12:04:03.893Z,3.88
2022-09-13T12:06:35.492Z,3.55
2022-09-13T12:09:07.333Z,4.03
2022-09-13T12:14:05.049Z,4.50
2022-09-13T12:16:36.429Z,4.25
2022-09-13T12:19:07.280Z,4.45
2022-09-13T12:21:38.011Z,3.75
2022-09-13T12:24:12.962Z,3.92
2022-09-13T12:26:44.814Z,3.80
2022-09-13T12:29:17.960Z,3.63
2022-09-13T12:31:44.814Z,3.75
2022-09-13T12:34:20.085Z,3.40
2022-09-13T12:37:09.910Z,3.63
2022-09-13T12:40:11.700Z,3.40
2022-09-13T12:43:06.599Z,3.50
2022-09-13T12:45:47.176Z,3.55
2022-09-13T12:48:38.818Z,3.70
2022-09-13T12:51:15.311Z,3.83
2022-09-13T12:54:30.397Z,4.13
2022-09-13T12:57:10.569Z,4.00
2022-09-13T12:59:54.874Z,3.92
2022-09-13T13:02:30.896Z,4.10
2022-09-13T13:05:01.208Z,4.45
2022-09-13T13:07:30.418Z,4.07
2022-09-13T13:09:57.949Z,4.45
2022-09-13T13:12:30.920Z,4.18
2022-09-13T13:14:59.026Z,3.80
2022-09-13T13:17:44.061Z,4.28
2022-09-13T13:20:45.846Z,3.85
2022-09-13T13:23:19.745Z,3.90
2022-09-13T13:26:07.817Z,4.65
2022-09-13T13:29:17.720Z,4.00
2022-09-13T13:32:09.214Z,4.10
2022-09-13T13:34:43.586Z,4.43
2022-09-13T13:37:33.905Z,4.45
2022-09-13T13:43:11.600Z,4.47
2022-09-13T13:45:38.197Z,4.18
2022-09-13T13:48:11.507Z,3.75
2022-09-13T13:51:17.747Z,4.18
2022-09-13T13:53:48.483Z,3.85
2022-09-13T13:56:22.317Z,3.55
2022-09-13T13:58:57.324Z,3.70
2022-09-13T14:01:26.739Z,4.20
2022-09-13T14:04:27.687Z,3.67
2022-09-13T14:07:06.530Z,3.95
2022-09-13T14:09:47.186Z,4.32
2022-09-13T14:12:44.556Z,4.00
2022-09-13T14:15:26.467Z,3.75
2022-09-13T14:18:16.869Z,3.40
2022-09-13T14:20:58.187Z,3.53
2022-09-13T14:23:26.073Z,3.72
2022-09-13T14:25:55.947Z,3.30
2022-09-13T14:28:23.338Z,3.97
2022-09-13T14:30:54.458Z,3.55
2022-09-13T14:33:25.985Z,3.75
2022-09-13T14:36:02.197Z,3.13
2022-09-13T14:38:31.863Z,3.60
2022-09-13T14:41:00.174Z,3.70
2022-09-13T14:43:28.493Z,3.53
2022-09-13T14:46:01.436Z,3.30
2022-09-13T14:48:36.238Z,3.45
2022-09-13T14:51:08.665Z,3.80
2022-09-13T14:53:36.792Z,3.47
2022-09-13T14:56:06.978Z,3.58
2022-09-13T14:58:42.238Z,3.65
2022-09-13T15:01:11.430Z,4.07
2022-09-13T15:03:41.501Z,3.90
2022-09-13T15:06:19.338Z,4.38
2022-09-13T15:08:48.663Z,4.00
2022-09-13T15:11:26.607Z,4.40
2022-09-13T15:14:02.046Z,4.95
2022-09-13T15:16:30.581Z,3.70
2022-09-13T15:19:17.180Z,4.50
2022-09-13T15:21:43.810Z,4.35
2022-09-13T15:24:21.522Z,5.00
2022-09-13T15:26:48.073Z,4.45
2022-09-13T15:29:19.250Z,4.43
2022-09-13T15:31:45.816Z,4.90
2022-09-13T15:34:19.822Z,4.40
2022-09-13T15:36:47.563Z,4.78
2022-09-13T15:39:17.743Z,4.50
2022-09-13T15:41:52.458Z,4.10
2022-09-13T15:44:19.092Z,4.65
2022-09-13T15:46:48.582Z,3.60
2022-09-13T15:49:16.819Z,3.80
2022-09-13T15:51:44.379Z,4.32
2022-09-13T15:54:12.521Z,4.85
2022-09-13T15:56:43.692Z,4.55
2022-09-13T15:59:13.445Z,4.38
2022-09-13T16:01:40.439Z,4.03
2022-09-13T16:04:07.076Z,3.75
2022-09-13T16:06:33.907Z,3.67
2022-09-13T16:09:00.484Z,3.83
2022-09-13T16:11:27.082Z,3.75
2022-09-13T16:13:54.948Z,3.70
2022-09-13T16:16:21.541Z,4.18
2022-09-13T16:18:48.128Z,3.97
2022-09-13T16:21:14.672Z,3.53
2022-09-13T16:23:41.209Z,3.78
2022-09-13T16:26:07.751Z,3.35
2022-09-13T16:28:34.272Z,3.30
2022-09-13T16:31:02.237Z,3.20
2022-09-13T16:33:28.827Z,3.70
2022-09-13T16:35:58.048Z,3.60
2022-09-13T16:38:28.076Z,3.42
2022-09-13T16:40:54.604Z,4.00
2022-09-13T16:43:22.143Z,3.75
2022-09-13T16:45:48.709Z,3.83
2022-09-13T16:48:16.666Z,3.53
2022-09-13T16:50:43.172Z,3.63
2022-09-13T16:53:09.705Z,3.88
2022-09-13T16:55:36.429Z,3.50
2022-09-13T16:58:03.103Z,3.50
2022-09-13T17:00:29.670Z,3.63
2022-09-13T17:02:56.367Z,3.50
2022-09-13T17:05:25.112Z,4.10
2022-09-13T17:07:52.752Z,4.60
2022-09-13T17:10:20.488Z,4.20
2022-09-13T17:12:47.079Z,3.83
2022-09-13T17:15:13.905Z,3.92
2022-09-13T17:17:40.439Z,3.72
2022-09-13T17:20:09.447Z,3.90
2022-09-13T17:22:37.432Z,3.35
2022-09-13T17:25:05.092Z,3.58
2022-09-13T17:27:31.626Z,3.53
2022-09-13T17:29:58.222Z,4.00
2022-09-13T17:32:24.798Z,3.67
2022-09-13T17:34:51.361Z,3.92
2022-09-13T17:37:17.877Z,4.28
2022-09-13T17:39:46.124Z,3.65
2022-09-13T17:42:12.769Z,4.50
2022-09-13T17:44:39.369Z,3.25
2022-09-13T17:47:06.199Z,3.90
2022-09-13T17:49:32.730Z,3.65
2022-09-13T17:51:59.236Z,3.72
2022-09-13T17:54:25.781Z,4.32
2022-09-13T17:56:53.640Z,3.72
2022-09-13T17:59:21.852Z,4.13
2022-09-13T18:01:49.933Z,3.90
2022-09-13T18:04:19.990Z,4.25
2022-09-13T18:06:46.837Z,3.80
2022-09-13T18:09:14.551Z,3.88
2022-09-13T18:11:41.311Z,4.10
2022-09-13T18:14:11.542Z,3.88
2022-09-13T18:16:38.062Z,3.85
2022-09-13T18:19:04.705Z,3.83
2022-09-13T18:21:31.255Z,3.97
2022-09-13T18:23:59.460Z,4.15
2022-09-13T18:26:27.578Z,4.10
2022-09-13T18:28:55.411Z,3.85
2022-09-13T18:31:24.679Z,4.05
2022-09-13T18:33:55.250Z,4.05
2022-09-13T18:36:21.903Z,3.75
2022-09-13T18:38:49.281Z,4.15
2022-09-13T18:41:18.672Z,3.63
2022-09-13T18:43:46.441Z,4.15
2022-09-13T18:46:14.666Z,3.90
2022-09-13T18:48:45.615Z,3.78
2022-09-13T18:51:15.338Z,4.00
2022-09-13T18:53:42.399Z,4.40
2022-09-13T18:56:11.112Z,4.38
2022-09-13T18:58:39.588Z,4.05
2022-09-13T19:01:08.332Z,4.13
2022-09-13T19:03:35.997Z,4.10
2022-09-13T19:06:12.044Z,3.90
2022-09-13T19:08:38.731Z,3.97
2022-09-13T19:11:06.259Z,4.00
2022-09-13T19:13:33.488Z,4.00
2022-09-13T19:16:01.096Z,3.70
2022-09-13T19:18:28.107Z,4.10
2022-09-13T19:21:01.398Z,4.32
2022-09-13T19:23:48.891Z,3.55
2022-09-13T19:26:17.912Z,4.18
2022-09-13T19:28:46.436Z,3.92
2022-09-13T19:31:14.173Z,3.92
2022-09-13T19:33:41.548Z,4.00
2022-09-13T19:36:11.156Z,4.35
2022-09-13T19:38:39.492Z,4.43
2022-09-13T19:41:08.204Z,4.78
2022-09-13T19:43:36.501Z,4.15
2022-09-13T19:46:05.043Z,3.80
2022-09-13T19:48:38.637Z,4.03
2022-09-13T19:51:08.366Z,3.78
2022-09-13T19:53:55.860Z,3.92
2022-09-13T19:56:26.463Z,3.83
2022-09-13T19:58:53.546Z,4.03
2022-09-13T20:01:22.262Z,4.10
2022-09-13T20:03:54.158Z,3.65
2022-09-13T20:06:21.565Z,3.90
2022-09-13T20:08:48.065Z,4.07
2022-09-13T20:11:14.898Z,4.68
2022-09-13T20:13:44.336Z,4.00
2022-09-13T20:16:17.947Z,3.90
2022-09-13T20:18:45.044Z,4.05
2022-09-13T20:21:12.607Z,4.38
2022-09-13T20:23:41.886Z,4.20
2022-09-13T20:26:14.399Z,3.90
2022-09-13T20:28:40.936Z,4.03
2022-09-13T20:31:09.861Z,3.95
2022-09-13T20:33:36.567Z,3.80
2022-09-13T20:36:03.712Z,3.83
2022-09-13T20:38:30.215Z,4.43
2022-09-13T20:41:02.416Z,3.92
2022-09-13T20:43:28.971Z,4.25
2022-09-13T20:45:55.952Z,4.05
2022-09-13T20:48:24.254Z,5.25
2022-09-13T20:50:56.372Z,4.13
2022-09-13T20:53:22.889Z,4.00
2022-09-13T20:55:49.411Z,4.22
2022-09-13T20:58:15.915Z,4.15
2022-09-13T21:00:42.439Z,4.20
2022-09-13T21:03:08.967Z,3.90
2022-09-13T21:05:37.815Z,3.60
2022-09-13T21:08:04.540Z,4.13
2022-09-13T21:10:31.057Z,4.00
2022-09-13T21:12:57.578Z,3.65
2022-09-13T21:15:24.082Z,5.28
2022-09-13T21:17:50.605Z,4.63
2022-09-13T21:20:17.114Z,4.13
2022-09-13T21:22:44.999Z,4.78
2022-09-13T21:25:11.527Z,3.80
2022-09-13T21:27:38.071Z,4.00
2022-09-13T21:30:05.645Z,4.60
2022-09-13T21:32:32.223Z,4.43
2022-09-13T21:34:58.735Z,4.50
2022-09-13T21:37:25.268Z,4.63
2022-09-13T21:39:53.235Z,4.80
2022-09-13T21:42:19.779Z,4.50
2022-09-13T21:44:46.271Z,4.18
2022-09-13T21:47:12.780Z,4.60
2022-09-13T21:49:39.321Z,4.30
2022-09-13T21:52:05.855Z,4.05
2022-09-13T21:54:32.363Z,4.63
2022-09-13T21:57:00.241Z,4.78
2022-09-13T21:59:26.797Z,4.35
2022-09-13T22:01:53.619Z,4.53
2022-09-13T22:04:21.762Z,4.78
2022-09-13T22:06:49.933Z,4.43
2022-09-13T22:09:16.488Z,4.20
2022-09-13T22:11:44.819Z,4.93
2022-09-13T22:14:14.446Z,4.40
2022-09-13T22:16:42.659Z,4.38
2022-09-13T22:19:12.222Z,4.57
2022-09-13T22:21:41.233Z,4.60
2022-09-13T22:24:09.869Z,4.38
2022-09-13T22:26:38.954Z,5.03
2022-09-13T22:29:06.218Z,4.35
2022-09-13T22:31:36.367Z,4.28
2022-09-13T22:34:03.855Z,4.05
2022-09-13T22:36:30.661Z,4.00
2022-09-13T22:38:57.606Z,4.10
2022-09-13T22:41:26.417Z,4.32
2022-09-13T22:43:53.685Z,4.53
2022-09-13T22:46:21.806Z,4.38
2022-09-13T22:48:50.163Z,4.25
2022-09-13T22:51:18.207Z,4.32
2022-09-13T22:53:46.786Z,4.30
2022-09-13T22:56:15.144Z,4.38
2022-09-13T22:58:42.468Z,4.38
2022-09-13T23:01:10.957Z,4.05
2022-09-13T23:03:38.815Z,4.00
2022-09-13T23:06:07.439Z,4.47
2022-09-13T23:08:34.884Z,4.18
2022-09-13T23:11:08.897Z,4.50
2022-09-13T23:13:35.710Z,4.82
2022-09-13T23:16:02.303Z,4.50
2022-09-13T23:18:28.823Z,4.18
2022-09-13T23:20:56.096Z,4.78
2022-09-13T23:23:24.198Z,4.45
2022-09-13T23:25:51.104Z,4.32
2022-09-13T23:28:17.662Z,4.28
2022-09-13T23:30:44.180Z,4.28
2022-09-13T23:33:10.730Z,4.00
2022-09-13T23:35:37.304Z,4.43
2022-09-13T23:38:04.014Z,4.72
2022-09-13T23:40:32.074Z,4.68
2022-09-13T23:42:58.686Z,4.82
2022-09-13T23:45:25.271Z,4.65
2022-09-13T23:47:51.905Z,4.07
2022-09-13T23:50:18.443Z,4.55
2022-09-13T23:52:44.970Z,4.80
2022-09-13T23:55:11.495Z,4.95
2022-09-13T23:57:39.434Z,4.68
